Bradshaw AFB, HI

6:39 AM HST on October 22, 2014 (GMT -1000)
Waikoloa Village | Change Station
CLOSE
Current Station
Personal Weather Station
Location: Waikoloa, HI
Elevation: 1007 ft
Nearby Weather Stations

Elev 1007 ft 19.95 °N, 155.78 °W | Updated 2 minutes ago

Clear
Clear
68.9 °F
Feels Like 68.9 °F
N
6.3
Wind Variable Wind from East
Gusts 7.6 mph

Today
High -- | Low -- °F
--% Chance of Precip.
Yesterday
High -- | Low -- °F
Precip. -- in
6:19 AM 5:53 PM
Waning Crescent, 2% visible
Pressure 30.06 in
Visibility 10.0 miles
Clouds Clear
Dew Point 64 °F
Humidity 83%
Rainfall 0.00 in
Snow Depth Not available.
UV 0 out of 12
Pollen Not available.
Air Quality Not available.
Flu Activity Sporadic
METAR PHSF 221556Z AUTO 12004KT 10SM CLR 07/05 A3034 RMK AO2 SLP178 T00700053 $

More Conditions Fewer Conditions

Pressure 30.06 in
Visibility 10.0 miles
Clouds Clear
Dew Point 64 °F
Humidity 83%
Rainfall 0.00 in
Snow Depth Not available.
UV 0 out of 12
Pollen Not available.
Air Quality Not available.
Flu Activity Sporadic
METAR PHSF 221556Z AUTO 12004KT 10SM CLR 07/05 A3034 RMK AO2 SLP178 T00700053 $

More Conditions Fewer Conditions

10-Day Weather Forecast

Almanac

Astronomy

Oct. 22, 2014 Rise Set
Actual Time 6:19 AM HST 5:53 PM HST
Civil Twilight 5:56 AM HST 6:15 PM HST
Nautical Twilight 5:31 AM HST 6:41 PM HST
Astronomical Twilight 5:05 AM HST 7:07 PM HST
Moon 5:19 AM HST 5:20 PM HST
Length of Visible Light 12h 19m
Length of Day
11h 34m
Tomorrow will be 1m 2s shorter.
Waning Crescent, 2% of the Moon is Illuminated
Today
Waning Crescent
Oct 23
New
Oct 30
First Quarter
Nov 6
Full
Nov 14
Last Quarter

Today's Extremes

State Highs State Lows

Community

WunderPhotos

Upload Photos

1,763,960 photos uploaded!

Nearby

Snow Depth

Station Depth Elevation
No new snow has been reported.

Earthquake Activity

City Distance Mag. Time & Date
No recent earthquake activity has been reported nearby.
Minimum magnitude displayed is 2.5.

Coastal Water Temperatures

Place Temperature
No Stations Reporting

Nearby Weather Stations